Terminal Aerodrome Forecast
Issued by NWS

Current Version | Previous Version | Graphics & Text | Print | Product List | Glossary On
Versions: 1 2 3 4 5 6 7 8 9 10 11 12 13 14 15 16 17
000
FTUS41 KPBZ 230500
TAFHLG
TAF
KHLG 230528Z 2306/2406 20008KT P6SM BKN080
     FM231700 17006KT P6SM SCT050 BKN200
     FM240400 15010KT P6SM -RA BKN035=

USA.gov is the U.S. government's official web portal to all federal, state and local government web resources and services.